DRRM

Maradi Airport

Maradi, Niger
METAR DRRM 190600Z 10004KT CAVOK 13/07 Q1015
Observed Flight Rules
Jan-19 @ 06:00 UTC (an hour ago) Visual Flight Rules
Wind Visibility Clouds
100° at 4 knots 10,000+ meters
  • Clear skies
Temperatures Readings
Current 13°C / 55°F
Dewpoint 7°C / 45°F
Humidity 67%
Altimeter 29.97" Hg
Pressure 1015 hPa
Elevation 373
METAR DRRM 190600Z 10004KT CAVOK 13/07 Q1015
Observed Flight Rules
Jan-19 @ 06:00 UTC
(an hour ago)
VFR
Wind Visibility
100° at 4 knots 10,000+ meters
Clouds
  • Clear skies
Temperature Dewpoint
13°C / 55°F 7°C / 45°F
Humidity Altimeter Pressure
67% 29.97" Hg 1015 hPa